Time;durP1;ratioP1;P1;durP2;ratioP2;P2;SDS_P1;SDS_P2;PMS_P1;PMS_P2;Temp;Humidity;BMP_temperature;BMP_pressure;BME280_temperature;BME280_humidity;BME280_pressure;Samples;Min_cycle;Max_cycle;Signal;HPM_P1;HPM_P2
2021/04/28 01:41:08;;;;;;;7.50;4.20;;;;;;;;;;12856703;23;20282;-71
2021/04/28 01:46:10;;;;;;;7.60;4.57;;;;;;;;;;12856075;23;20683;-71
2021/04/28 01:51:13;;;;;;;5.67;4.40;;;;;;;;;;12861464;23;20179;-71
2021/04/28 01:56:16;;;;;;;5.83;4.43;;;;;;;;;;12858766;23;20176;-71
2021/04/28 02:01:18;;;;;;;7.00;4.40;;;;;;;;;;12857629;22;20211;-72
2021/04/28 02:06:20;;;;;;;7.80;4.87;;;;;;;;;;12859567;23;20636;-71
2021/04/28 02:11:23;;;;;;;5.70;4.57;;;;;;;;;;12875243;23;20178;-71
2021/04/28 02:16:25;;;;;;;8.17;4.27;;;;;;;;;;12852145;23;20233;-72
2021/04/28 02:21:27;;;;;;;8.03;4.70;;;;;;;;;;12858843;23;20175;-72
2021/04/28 02:26:29;;;;;;;10.80;4.87;;;;;;;;;;12876178;23;20183;-73
2021/04/28 02:31:31;;;;;;;9.20;4.70;;;;;;;;;;12849035;23;20189;-72
2021/04/28 02:36:35;;;;;;;8.10;4.60;;;;;;;;;;12882873;23;20193;-72
2021/04/28 02:41:40;;;;;;;7.70;4.80;;;;;;;;;;12877209;23;20511;-73
2021/04/28 02:46:42;;;;;;;8.60;4.90;;;;;;;;;;12854118;23;21102;-72
2021/04/28 02:51:45;;;;;;;8.20;4.73;;;;;;;;;;12856538;23;20181;-72
2021/04/28 02:56:48;;;;;;;7.20;4.90;;;;;;;;;;12857368;23;20313;-73
2021/04/28 03:01:51;;;;;;;9.60;4.90;;;;;;;;;;12873336;22;20253;-73
2021/04/28 03:06:53;;;;;;;6.30;4.83;;;;;;;;;;12857334;23;20602;-72
2021/04/28 03:11:57;;;;;;;7.87;4.70;;;;;;;;;;12878292;23;20203;-73
2021/04/28 03:16:59;;;;;;;12.03;4.83;;;;;;;;;;12855315;23;20367;-73
2021/04/28 03:22:02;;;;;;;6.80;4.60;;;;;;;;;;12881040;23;20183;-72
2021/04/28 03:27:09;;;;;;;7.27;4.40;;;;;;;;;;12857898;23;20640;-74
2021/04/28 03:32:11;;;;;;;10.97;5.20;;;;;;;;;;12877496;23;20262;-74
2021/04/28 03:37:15;;;;;;;8.27;4.43;;;;;;;;;;12858281;23;20234;-74
2021/04/28 03:42:19;;;;;;;6.67;4.47;;;;;;;;;;12879554;23;20612;-74
2021/04/28 03:47:21;;;;;;;9.23;4.40;;;;;;;;;;12880164;23;20186;-73
2021/04/28 03:52:23;;;;;;;6.53;4.47;;;;;;;;;;12865396;23;20286;-73
2021/04/28 03:57:26;;;;;;;6.07;4.50;;;;;;;;;;12881806;23;20194;-72
2021/04/28 04:02:32;;;;;;;7.03;4.63;;;;;;;;;;12881995;22;20277;-72
2021/04/28 04:07:34;;;;;;;9.33;4.90;;;;;;;;;;12859494;23;20237;-73
2021/04/28 04:12:37;;;;;;;7.47;4.30;;;;;;;;;;12879553;23;20167;-72
2021/04/28 04:17:39;;;;;;;6.50;4.70;;;;;;;;;;12880996;23;20213;-73
2021/04/28 04:22:41;;;;;;;9.23;4.80;;;;;;;;;;12862932;23;20727;-73
2021/04/28 04:27:44;;;;;;;8.17;4.70;;;;;;;;;;12855649;23;20179;-74
2021/04/28 04:32:45;;;;;;;7.60;4.93;;;;;;;;;;12857857;23;20670;-73
2021/04/28 04:37:47;;;;;;;6.97;4.93;;;;;;;;;;12858539;23;20211;-74
2021/04/28 04:42:51;;;;;;;8.63;5.00;;;;;;;;;;12858089;23;20203;-74
2021/04/28 04:47:52;;;;;;;7.37;4.77;;;;;;;;;;12858439;23;20652;-74
2021/04/28 04:52:55;;;;;;;7.80;5.10;;;;;;;;;;12880102;23;20259;-73
2021/04/28 04:57:58;;;;;;;10.10;5.13;;;;;;;;;;12859677;23;20203;-74
2021/04/28 05:03:00;;;;;;;11.87;4.77;;;;;;;;;;12874460;22;20537;-73
2021/04/28 05:08:02;;;;;;;9.63;5.07;;;;;;;;;;12853728;23;20183;-75
2021/04/28 05:13:05;;;;;;;8.50;5.23;;;;;;;;;;12853784;23;20537;-80
2021/04/28 05:18:07;;;;;;;7.93;4.63;;;;;;;;;;12876341;23;20535;-71
2021/04/28 05:23:09;;;;;;;6.70;4.87;;;;;;;;;;12855778;23;20198;-73
2021/04/28 05:28:11;;;;;;;8.23;5.03;;;;;;;;;;12853766;23;20181;-72
2021/04/28 05:33:13;;;;;;;6.90;4.57;;;;;;;;;;12852090;23;20190;-74
2021/04/28 05:38:15;;;;;;;10.70;5.13;;;;;;;;;;12854636;23;20294;-75
2021/04/28 05:43:18;;;;;;;9.97;5.00;;;;;;;;;;12849527;23;20186;-76
2021/04/28 05:48:22;;;;;;;9.53;5.33;;;;;;;;;;12875212;23;20183;-75
2021/04/28 05:53:24;;;;;;;9.33;5.40;;;;;;;;;;12853327;23;20179;-75
2021/04/28 05:58:27;;;;;;;8.13;5.40;;;;;;;;;;12851160;23;20467;-74
2021/04/28 06:03:29;;;;;;;7.93;5.10;;;;;;;;;;12851547;22;20234;-74
2021/04/28 06:08:31;;;;;;;11.87;5.50;;;;;;;;;;12856921;23;20174;-75
2021/04/28 06:13:34;;;;;;;12.43;5.40;;;;;;;;;;12850518;23;20186;-75
2021/04/28 06:18:36;;;;;;;13.23;5.60;;;;;;;;;;12852742;23;20211;-75
2021/04/28 06:23:38;;;;;;;8.50;5.60;;;;;;;;;;12854486;23;20234;-75
2021/04/28 06:28:42;;;;;;;8.23;5.17;;;;;;;;;;12850377;23;20505;-75
2021/04/28 06:33:44;;;;;;;10.97;5.73;;;;;;;;;;12851218;23;20179;-75
2021/04/28 06:38:46;;;;;;;9.60;5.43;;;;;;;;;;12865459;23;20400;-75
2021/04/28 06:43:49;;;;;;;10.67;5.90;;;;;;;;;;12847735;23;20210;-75
2021/04/28 06:48:51;;;;;;;8.27;5.17;;;;;;;;;;12852313;23;20263;-75
2021/04/28 06:53:53;;;;;;;9.30;5.67;;;;;;;;;;12850971;23;20325;-75
2021/04/28 06:58:57;;;;;;;10.13;5.40;;;;;;;;;;12850237;23;20209;-75
2021/04/28 07:03:58;;;;;;;11.47;5.77;;;;;;;;;;12853736;22;20278;-74
2021/04/28 07:09:01;;;;;;;9.93;5.70;;;;;;;;;;12857547;23;20195;-74
2021/04/28 07:14:04;;;;;;;9.73;5.40;;;;;;;;;;12849373;23;20535;-74
2021/04/28 07:19:06;;;;;;;12.20;5.67;;;;;;;;;;12857434;23;20249;-73
2021/04/28 07:24:08;;;;;;;9.70;6.03;;;;;;;;;;12877884;23;20198;-73
2021/04/28 07:29:11;;;;;;;9.13;6.07;;;;;;;;;;12855146;23;20175;-74
2021/04/28 07:34:13;;;;;;;9.80;5.70;;;;;;;;;;12861486;23;20262;-73
2021/04/28 07:39:16;;;;;;;8.37;5.13;;;;;;;;;;12884831;23;20261;-74
2021/04/28 07:44:19;;;;;;;11.77;5.60;;;;;;;;;;12860430;23;20179;-73
2021/04/28 07:49:20;;;;;;;12.17;5.90;;;;;;;;;;12865448;23;20186;-74
2021/04/28 07:54:24;;;;;;;9.80;5.80;;;;;;;;;;12866118;23;20269;-75
2021/04/28 07:59:27;;;;;;;14.27;5.67;;;;;;;;;;12880424;23;20285;-74
2021/04/28 08:04:29;;;;;;;9.77;6.03;;;;;;;;;;12862891;22;20375;-74
2021/04/28 08:09:31;;;;;;;11.03;5.80;;;;;;;;;;12860095;23;20216;-73
2021/04/28 08:14:34;;;;;;;9.23;5.83;;;;;;;;;;12858629;23;20175;-74
2021/04/28 08:19:37;;;;;;;11.37;5.67;;;;;;;;;;12882304;23;20727;-74
2021/04/28 08:24:39;;;;;;;10.10;5.60;;;;;;;;;;12862909;23;20624;-74
2021/04/28 08:29:42;;;;;;;11.70;6.13;;;;;;;;;;12858379;23;20845;-73
2021/04/28 08:34:44;;;;;;;15.57;5.97;;;;;;;;;;12862884;23;20279;-73
2021/04/28 08:39:46;;;;;;;9.90;6.17;;;;;;;;;;12860708;23;20211;-74
2021/04/28 08:44:49;;;;;;;10.13;5.90;;;;;;;;;;12877404;23;20214;-74
2021/04/28 08:49:50;;;;;;;10.27;5.47;;;;;;;;;;12883472;23;20167;-75
2021/04/28 08:54:53;;;;;;;10.23;5.40;;;;;;;;;;12863405;23;20513;-75
2021/04/28 08:59:56;;;;;;;10.37;6.00;;;;;;;;;;12857114;23;20223;-75
2021/04/28 09:05:05;;;;;;;8.67;6.00;;;;;;;;;;12864127;22;20205;-75
2021/04/28 09:10:08;;;;;;;8.73;6.07;;;;;;;;;;12856611;23;20640;-74
2021/04/28 09:15:11;;;;;;;8.83;5.80;;;;;;;;;;12855225;23;20197;-74
2021/04/28 09:20:13;;;;;;;12.03;6.13;;;;;;;;;;12857169;23;20207;-74
2021/04/28 09:25:32;;;;;;;10.17;6.83;;;;;;;;;;12859545;23;20171;-74
2021/04/28 09:30:35;;;;;;;10.80;6.63;;;;;;;;;;12872840;23;20175;-74
2021/04/28 09:35:38;;;;;;;11.83;6.37;;;;;;;;;;12877510;23;20175;-74
2021/04/28 09:40:41;;;;;;;14.07;6.20;;;;;;;;;;12876963;23;20220;-74
2021/04/28 09:45:45;;;;;;;10.60;6.10;;;;;;;;;;12851988;23;20201;-74
2021/04/28 09:50:48;;;;;;;10.67;6.23;;;;;;;;;;12855991;23;20182;-74
2021/04/28 09:55:50;;;;;;;17.10;6.97;;;;;;;;;;12857105;23;20178;-74
2021/04/28 10:00:58;;;;;;;13.33;6.20;;;;;;;;;;12851984;23;20913;-74
2021/04/28 10:06:01;;;;;;;11.00;7.20;;;;;;;;;;12879390;23;20229;-75
2021/04/28 10:11:03;;;;;;;11.43;6.23;;;;;;;;;;12853494;23;20249;-74
2021/04/28 10:16:06;;;;;;;8.93;6.23;;;;;;;;;;12852596;23;20406;-75
2021/04/28 10:21:08;;;;;;;9.90;6.77;;;;;;;;;;12852127;23;20218;-75
2021/04/28 10:26:09;;;;;;;14.80;6.33;;;;;;;;;;12850476;23;21108;-75
2021/04/28 10:31:12;;;;;;;9.90;6.70;;;;;;;;;;12849318;23;20495;-75
2021/04/28 10:36:15;;;;;;;15.03;7.10;;;;;;;;;;12859831;23;20690;-73
2021/04/28 10:41:36;;;;;;;9.73;6.50;;;;;;;;;;12855184;23;20207;-75
2021/04/28 10:46:42;;;;;;;10.53;6.97;;;;;;;;;;12868644;23;20267;-74
2021/04/28 10:51:52;;;;;;;8.83;5.70;;;;;;;;;;12879437;23;20175;-74
2021/04/28 10:57:01;;;;;;;13.73;6.83;;;;;;;;;;12878446;23;20179;-74
2021/04/28 11:02:09;;;;;;;11.97;7.33;;;;;;;;;;12874896;22;20233;-73
2021/04/28 11:07:14;;;;;;;18.43;7.57;;;;;;;;;;12859562;23;20225;-74
2021/04/28 11:12:16;;;;;;;11.63;6.57;;;;;;;;;;12881679;23;20251;-73
2021/04/28 11:17:26;;;;;;;9.00;6.57;;;;;;;;;;12859635;23;20492;-74
2021/04/28 11:22:29;;;;;;;10.03;6.33;;;;;;;;;;12885464;23;20471;-74
2021/04/28 11:27:55;;;;;;;10.40;6.17;;;;;;;;;;12883419;23;20461;-74
2021/04/28 11:33:11;;;;;;;10.50;5.90;;;;;;;;;;12883201;23;20171;-74
2021/04/28 11:38:13;;;;;;;18.27;7.07;;;;;;;;;;12880229;23;20547;-74
2021/04/28 11:43:17;;;;;;;11.67;7.67;;;;;;;;;;12860257;23;20194;-73
2021/04/28 11:48:20;;;;;;;16.67;8.30;;;;;;;;;;12881545;23;20760;-73
2021/04/28 11:53:24;;;;;;;18.17;7.73;;;;;;;;;;12862648;23;20211;-73
2021/04/28 11:58:27;;;;;;;12.23;7.60;;;;;;;;;;12862057;23;20202;-74
2021/04/28 12:03:47;;;;;;;14.20;7.40;;;;;;;;;;12860881;22;20249;-74
2021/04/28 12:08:59;;;;;;;12.23;8.00;;;;;;;;;;12884917;23;20171;-74
2021/04/28 12:14:01;;;;;;;13.27;7.47;;;;;;;;;;12879900;23;20170;-74
2021/04/28 12:19:09;;;;;;;14.97;8.13;;;;;;;;;;12867129;23;20218;-74
2021/04/28 12:24:10;;;;;;;12.50;8.07;;;;;;;;;;12861740;23;20644;-74
2021/04/28 12:29:20;;;;;;;17.10;8.30;;;;;;;;;;12859380;23;20189;-74
2021/04/28 12:34:23;;;;;;;10.50;7.33;;;;;;;;;;12882612;23;20249;-74
2021/04/28 12:39:26;;;;;;;10.50;6.87;;;;;;;;;;12863581;23;20214;-74
2021/04/28 12:44:27;;;;;;;14.80;8.60;;;;;;;;;;12857260;23;20175;-74
2021/04/28 12:49:31;;;;;;;13.13;8.23;;;;;;;;;;12862940;23;20182;-74
2021/04/28 12:54:33;;;;;;;14.10;7.83;;;;;;;;;;12862440;23;20237;-74
2021/04/28 12:59:35;;;;;;;14.50;8.97;;;;;;;;;;12858399;23;20727;-74
2021/04/28 13:04:47;;;;;;;16.67;8.40;;;;;;;;;;12862506;22;20191;-74
2021/04/28 13:09:49;;;;;;;13.57;8.03;;;;;;;;;;12884566;23;20181;-74
2021/04/28 13:14:51;;;;;;;14.03;8.40;;;;;;;;;;12878922;23;20187;-74
2021/04/28 13:19:54;;;;;;;13.10;8.93;;;;;;;;;;12861563;23;20593;-74
2021/04/28 13:24:56;;;;;;;12.40;8.50;;;;;;;;;;12861344;23;20175;-73
2021/04/28 13:30:00;;;;;;;11.13;7.50;;;;;;;;;;12858253;23;20175;-74
2021/04/28 13:35:14;;;;;;;12.10;8.03;;;;;;;;;;12860763;23;21088;-74
2021/04/28 13:40:19;;;;;;;12.23;8.03;;;;;;;;;;12867101;23;20217;-74
2021/04/28 13:45:22;;;;;;;15.63;9.43;;;;;;;;;;12876403;23;20548;-74
2021/04/28 13:50:27;;;;;;;19.83;9.73;;;;;;;;;;12888626;23;20209;-74
2021/04/28 13:55:28;;;;;;;13.60;8.67;;;;;;;;;;12881721;23;20938;-73
2021/04/28 14:00:30;;;;;;;16.40;9.50;;;;;;;;;;12858135;23;20217;-75
2021/04/28 14:05:33;;;;;;;14.47;8.53;;;;;;;;;;12861230;22;20195;-74
2021/04/28 14:10:35;;;;;;;20.60;10.00;;;;;;;;;;12863324;23;20361;-73
2021/04/28 14:15:37;;;;;;;15.50;9.00;;;;;;;;;;12877749;23;20945;-74
2021/04/28 14:20:40;;;;;;;13.30;8.10;;;;;;;;;;12865399;23;20301;-73
2021/04/28 14:25:42;;;;;;;16.37;8.73;;;;;;;;;;12882044;23;20669;-74
2021/04/28 14:30:44;;;;;;;17.47;8.97;;;;;;;;;;12859152;23;20523;-74
2021/04/28 14:35:47;;;;;;;14.03;8.50;;;;;;;;;;12869318;23;20179;-74
2021/04/28 14:40:49;;;;;;;12.37;8.00;;;;;;;;;;12866959;23;20211;-74
2021/04/28 14:45:55;;;;;;;12.73;8.67;;;;;;;;;;12866492;23;20174;-74
2021/04/28 14:51:01;;;;;;;15.70;9.43;;;;;;;;;;12889415;23;20171;-74
2021/04/28 14:56:03;;;;;;;14.60;9.50;;;;;;;;;;12888675;23;20167;-73
2021/04/28 15:01:05;;;;;;;14.73;8.27;;;;;;;;;;12861467;22;20658;-73
2021/04/28 15:06:09;;;;;;;14.87;8.87;;;;;;;;;;12868165;23;20181;-73
2021/04/28 15:11:11;;;;;;;15.40;9.20;;;;;;;;;;12889482;23;20258;-74
2021/04/28 15:16:13;;;;;;;19.40;9.17;;;;;;;;;;12863640;23;20286;-74
2021/04/28 15:21:16;;;;;;;16.30;8.80;;;;;;;;;;12867347;23;20289;-74
2021/04/28 15:26:17;;;;;;;13.13;8.00;;;;;;;;;;12885705;23;20450;-74
2021/04/28 15:31:20;;;;;;;15.23;8.53;;;;;;;;;;12861119;23;20175;-74
2021/04/28 15:36:23;;;;;;;15.03;9.03;;;;;;;;;;12890772;23;20179;-74
2021/04/28 15:41:25;;;;;;;16.23;9.40;;;;;;;;;;12863901;23;20910;-74
2021/04/28 15:46:28;;;;;;;16.87;8.97;;;;;;;;;;12883136;23;20179;-74
2021/04/28 15:51:30;;;;;;;14.00;8.13;;;;;;;;;;12885499;23;20181;-74
2021/04/28 15:56:33;;;;;;;11.00;6.80;;;;;;;;;;12863728;23;20190;-73
2021/04/28 16:01:38;;;;;;;16.07;8.00;;;;;;;;;;12853904;22;20226;-72
2021/04/28 16:06:41;;;;;;;15.83;7.67;;;;;;;;;;12862030;23;20254;-71
2021/04/28 16:11:44;;;;;;;12.50;7.20;;;;;;;;;;12860878;23;20193;-74
2021/04/28 16:16:46;;;;;;;13.63;7.97;;;;;;;;;;12858536;23;20233;-74
2021/04/28 16:21:48;;;;;;;14.83;7.17;;;;;;;;;;12879619;23;20273;-73
2021/04/28 16:26:51;;;;;;;17.07;7.00;;;;;;;;;;12862851;23;20175;-75
2021/04/28 16:31:53;;;;;;;17.23;7.47;;;;;;;;;;12855800;23;20179;-72
2021/04/28 16:36:55;;;;;;;13.93;7.97;;;;;;;;;;12864449;23;20210;-74
2021/04/28 16:41:57;;;;;;;10.70;7.27;;;;;;;;;;12878548;23;20199;-78
2021/04/28 16:47:00;;;;;;;23.33;8.47;;;;;;;;;;12878785;23;20736;-74
2021/04/28 16:52:03;;;;;;;11.53;7.43;;;;;;;;;;12857894;23;20277;-73
2021/04/28 16:57:07;;;;;;;18.57;7.77;;;;;;;;;;12859074;23;21147;-73
2021/04/28 17:02:09;;;;;;;13.33;7.83;;;;;;;;;;12841081;22;20206;-72
2021/04/28 17:07:12;;;;;;;13.65;8.23;;;;;;;;;;12850914;23;20447;-74
2021/04/28 17:12:14;;;;;;;11.73;8.00;;;;;;;;;;12851720;23;20175;-73
2021/04/28 17:17:16;;;;;;;9.80;6.57;;;;;;;;;;12852530;23;20214;-73
2021/04/28 17:22:19;;;;;;;8.93;5.83;;;;;;;;;;12851161;23;20203;-73
2021/04/28 17:27:21;;;;;;;13.07;8.20;;;;;;;;;;12849989;23;20238;-74
2021/04/28 17:32:25;;;;;;;18.97;8.50;;;;;;;;;;12857660;23;20500;-73
2021/04/28 17:37:27;;;;;;;15.40;7.13;;;;;;;;;;12854455;23;20535;-74
2021/04/28 17:42:30;;;;;;;13.93;8.33;;;;;;;;;;12854197;23;20217;-74
2021/04/28 17:47:32;;;;;;;12.57;7.77;;;;;;;;;;12849604;23;20197;-73
2021/04/28 17:52:34;;;;;;;13.83;8.57;;;;;;;;;;12880056;23;20186;-74
2021/04/28 17:57:36;;;;;;;13.07;8.40;;;;;;;;;;12853419;23;20210;-74
2021/04/28 18:02:38;;;;;;;17.97;8.73;;;;;;;;;;12855104;22;20211;-74
2021/04/28 18:07:44;;;;;;;17.10;8.13;;;;;;;;;;12870782;23;20175;-74
2021/04/28 18:12:46;;;;;;;15.23;8.80;;;;;;;;;;12877258;23;21030;-74
2021/04/28 18:17:48;;;;;;;18.00;8.70;;;;;;;;;;12872068;23;20258;-73
2021/04/28 18:22:52;;;;;;;19.13;8.20;;;;;;;;;;12873734;23;20210;-74
2021/04/28 18:27:54;;;;;;;15.87;8.43;;;;;;;;;;12852651;23;20178;-73
2021/04/28 18:32:56;;;;;;;17.40;8.30;;;;;;;;;;12871216;23;20716;-75
2021/04/28 18:37:59;;;;;;;17.30;8.57;;;;;;;;;;12851236;23;20218;-74
2021/04/28 18:43:01;;;;;;;13.30;9.00;;;;;;;;;;12851905;23;20293;-75
2021/04/28 18:48:03;;;;;;;13.20;8.73;;;;;;;;;;12874111;23;20186;-73
2021/04/28 18:53:07;;;;;;;14.03;8.37;;;;;;;;;;12855217;23;20486;-73
2021/04/28 18:58:09;;;;;;;17.57;8.53;;;;;;;;;;12871605;23;20651;-76
2021/04/28 19:03:11;;;;;;;17.43;8.83;;;;;;;;;;12852687;22;20769;-73
2021/04/28 19:08:14;;;;;;;15.60;8.57;;;;;;;;;;12850963;23;20175;-74
2021/04/28 19:13:16;;;;;;;13.10;8.30;;;;;;;;;;12853719;23;20213;-73
2021/04/28 19:18:18;;;;;;;16.93;7.83;;;;;;;;;;12854485;23;20207;-74
2021/04/28 19:23:20;;;;;;;12.63;7.73;;;;;;;;;;12861562;23;20207;-74
2021/04/28 19:28:22;;;;;;;14.40;8.60;;;;;;;;;;12851821;23;20175;-74
2021/04/28 19:33:24;;;;;;;15.07;8.70;;;;;;;;;;12857577;23;20186;-74
2021/04/28 19:38:27;;;;;;;11.73;7.90;;;;;;;;;;12853567;23;20249;-73
2021/04/28 19:43:29;;;;;;;15.87;7.57;;;;;;;;;;12857813;23;20270;-74
2021/04/28 19:48:31;;;;;;;14.43;8.13;;;;;;;;;;12856428;23;20175;-74
2021/04/28 19:53:34;;;;;;;14.20;8.40;;;;;;;;;;12861352;23;20179;-74
2021/04/28 19:58:36;;;;;;;17.13;8.23;;;;;;;;;;12853289;23;20186;-72
2021/04/28 20:03:38;;;;;;;12.87;7.73;;;;;;;;;;12879693;22;20201;-74
2021/04/28 20:08:41;;;;;;;10.87;7.10;;;;;;;;;;12885499;23;20202;-75
2021/04/28 20:13:44;;;;;;;13.67;7.50;;;;;;;;;;12863455;23;20183;-75
2021/04/28 20:18:46;;;;;;;12.60;7.10;;;;;;;;;;12889527;23;20210;-75
2021/04/28 20:23:49;;;;;;;12.23;7.33;;;;;;;;;;12863582;23;20556;-75
2021/04/28 20:28:51;;;;;;;16.53;7.83;;;;;;;;;;12861871;23;20182;-74
2021/04/28 20:33:55;;;;;;;12.57;6.90;;;;;;;;;;12884493;23;20178;-75
2021/04/28 20:38:58;;;;;;;13.77;7.67;;;;;;;;;;12887270;23;20294;-75
2021/04/28 20:44:00;;;;;;;13.50;7.03;;;;;;;;;;12880381;23;20183;-74
2021/04/28 20:49:02;;;;;;;14.13;6.90;;;;;;;;;;12886706;23;20527;-75
2021/04/28 20:54:05;;;;;;;15.77;7.50;;;;;;;;;;12855311;23;20448;-75
2021/04/28 20:59:08;;;;;;;13.40;7.83;;;;;;;;;;12875019;23;20317;-74
2021/04/28 21:04:10;;;;;;;14.10;7.80;;;;;;;;;;12879014;22;20693;-76
2021/04/28 21:09:15;;;;;;;11.37;6.83;;;;;;;;;;12860124;23;20501;-74
2021/04/28 21:14:16;;;;;;;13.00;7.30;;;;;;;;;;12854641;23;20526;-74
2021/04/28 21:19:18;;;;;;;13.60;7.33;;;;;;;;;;12878277;23;20202;-75
2021/04/28 21:24:21;;;;;;;11.20;7.27;;;;;;;;;;12856304;23;20637;-76
2021/04/28 21:29:24;;;;;;;12.07;7.27;;;;;;;;;;12872034;23;20175;-75
2021/04/28 21:34:25;;;;;;;13.73;7.40;;;;;;;;;;12855208;23;20186;-75
2021/04/28 21:39:28;;;;;;;13.07;7.70;;;;;;;;;;12879190;23;20297;-75
2021/04/28 21:44:30;;;;;;;10.33;6.87;;;;;;;;;;12873618;23;20210;-75
2021/04/28 21:49:32;;;;;;;13.67;7.70;;;;;;;;;;12878202;23;20187;-75
2021/04/28 21:54:35;;;;;;;14.53;7.13;;;;;;;;;;12876645;23;20266;-75
2021/04/28 21:59:37;;;;;;;14.37;7.83;;;;;;;;;;12876655;23;20737;-75
2021/04/28 22:04:39;;;;;;;10.47;7.13;;;;;;;;;;12866269;22;20273;-75
2021/04/28 22:09:43;;;;;;;12.03;6.93;;;;;;;;;;12879709;23;20207;-76
2021/04/28 22:14:45;;;;;;;11.13;6.80;;;;;;;;;;12873070;23;20658;-76
2021/04/28 22:19:47;;;;;;;11.57;7.13;;;;;;;;;;12877024;23;20698;-75
2021/04/28 22:24:49;;;;;;;13.17;7.37;;;;;;;;;;12855432;23;20222;-75
2021/04/28 22:29:51;;;;;;;11.40;6.77;;;;;;;;;;12853009;23;20218;-75
2021/04/28 22:34:53;;;;;;;11.83;7.23;;;;;;;;;;12854494;23;20179;-75
2021/04/28 22:39:56;;;;;;;11.93;7.50;;;;;;;;;;12861646;23;20214;-75
2021/04/28 22:44:58;;;;;;;11.23;6.93;;;;;;;;;;12853891;23;20175;-75
2021/04/28 22:50:00;;;;;;;13.73;7.17;;;;;;;;;;12878459;23;20558;-75
2021/04/28 22:55:04;;;;;;;11.87;6.90;;;;;;;;;;12881948;23;20175;-74
2021/04/28 23:00:07;;;;;;;14.27;7.60;;;;;;;;;;12856283;23;20238;-74
2021/04/28 23:05:10;;;;;;;13.30;7.13;;;;;;;;;;12862323;22;20199;-75
2021/04/28 23:10:13;;;;;;;10.00;6.77;;;;;;;;;;12873313;23;20171;-75
2021/04/28 23:15:16;;;;;;;10.87;7.13;;;;;;;;;;12856143;23;20183;-75
2021/04/28 23:20:18;;;;;;;11.97;6.77;;;;;;;;;;12859105;23;20199;-74
2021/04/28 23:25:21;;;;;;;10.83;6.80;;;;;;;;;;12878344;23;20175;-75
2021/04/28 23:30:23;;;;;;;10.73;7.27;;;;;;;;;;12875871;23;20651;-76
2021/04/28 23:35:26;;;;;;;10.70;6.97;;;;;;;;;;12876618;23;20511;-75
2021/04/28 23:40:30;;;;;;;16.17;7.80;;;;;;;;;;12855887;23;20555;-75
2021/04/28 23:45:32;;;;;;;17.33;7.53;;;;;;;;;;12869603;23;20745;-75
2021/04/28 23:50:35;;;;;;;13.50;7.27;;;;;;;;;;12880880;23;20225;-75
2021/04/28 23:55:39;;;;;;;13.77;7.60;;;;;;;;;;12855546;23;20190;-74
